Hlavní strana
METAR-TAF:

METAR-TAF

Letiště :

Augusta, Georgie, Spojené státy americké

zeměpisná šířka: 33-21-52N, zeměpisná délka: 081-57-48W, výška: 44 m

Aktuální stav počasí

Zpráva byla vytvořena před 45 minutami, v 22:53 UTC
Západní vítr 11 kt
Teplota 9°C
Vlhkost vzduchu 66%
Tlak 1009 hPa
Viditelnost: 16.1 km
Zataženo ve výšce 4300 ft

METAR: KAGS 302253Z 26011KT 10SM OVC043 09/03 A2980 RMK AO2 SLP089 T00940028

Čas: 18:38 (23:38 UTC)

Předpověď počasí

Zpráva byla vytvořena před 14 minutami, v 23:24 UTC
Předpověď platná od 01 v 00 UTC do 01 v 24 UTC
Západní vítr 12 kt s nárazy do 20 kt
Viditelnost: 10 km
Oblačno až skoro zataženo ve výšce 4000 ft
Od 01 v 1500 UTC
Západoseverozápadní vítr 10 kt s nárazy do 18 kt
Viditelnost: 10 km
Jasno

TAF: KAGS 302324Z 0100/0124 27012G20KT P6SM BKN040 FM011500 29010G18KT P6SM SKC

Stav a předpovědi počasí z více než 4 000 letišť (zprávy METAR a TAF).

Červené a žluté tečky na mapě představují dostupné meteorologické stanice.

Když kurzor umístíte na tečku, zobrazí se název stanice.

Pak kliknutím zobrazíte stav a předpověď počasí.

Chcete-li změnit mapu, kliknutím na zelené tlačítko se znaménkem +mapu přiblížíte, kliknutím na zelené tlačítko se znaménkem – mapu oddálíte a kliknutím na zelené šipky přejdete na sousední mapy.


METAR-TAF: